Terminal Aerodrome Forecast
Issued by NWS

Home | Current Version | Previous Version | Text Only | Print | Product List | Glossary On
Versions: 1 2 3 4 5 6 7 8 9 10 11 12 13 14 15 16
000
FTUS41 KBOX 230523
TAFHYA
TAF
KHYA 230523Z 2306/2406 23010KT P6SM BKN150 BKN250
     FM231000 21010KT P6SM BKN003
     FM231300 21010KT P6SM SCT003 OVC025
     FM231500 21013KT P6SM BKN060
     FM232100 21016KT P6SM BKN060
     FM232300 21017KT P6SM BKN010=

USA.gov is the U.S. government's official web portal to all federal, state and local government web resources and services.